Terminal Aerodrome Forecast
Issued by NWS Louisville, KY

Home | Current Version | Previous Version | Text Only | Print | Product List | Glossary On
Versions: 1 2 3 4 5 6 7 8 9 10 11 12 13
000
FTUS43 KLMK 201126
TAFSDF
TAF
KSDF 201126Z 2012/2118 12004KT 6SM HZ SCT035
     FM201400 17007KT P6SM FEW040
     FM201600 19005KT P6SM FEW060
     FM202300 17003KT P6SM FEW110=

USA.gov is the U.S. government's official web portal to all federal, state and local government web resources and services.